createdAt,value
2018-09-26T00:04:17.239Z,7.50
2018-09-26T00:10:21.094Z,7.50
2018-09-26T00:16:25.313Z,7.30
2018-09-26T00:22:30.341Z,7.20
2018-09-26T00:28:35.210Z,7.20
2018-09-26T00:34:39.714Z,7.10
2018-09-26T00:40:43.489Z,7.10
2018-09-26T00:46:47.034Z,7.00
2018-09-26T00:52:51.507Z,7.00
2018-09-26T00:58:55.180Z,7.00
2018-09-26T01:04:58.810Z,6.90
2018-09-26T01:11:02.458Z,6.90
2018-09-26T01:17:05.925Z,6.90
2018-09-26T01:23:10.333Z,6.90
2018-09-26T01:29:14.008Z,6.90
2018-09-26T01:35:17.411Z,6.70
2018-09-26T01:41:22.045Z,6.60
2018-09-26T01:47:27.031Z,6.60
2018-09-26T01:53:32.205Z,6.70
2018-09-26T01:59:35.622Z,6.70
2018-09-26T02:05:45.981Z,6.60
2018-09-26T02:11:51.369Z,6.60
2018-09-26T02:17:55.646Z,6.50
2018-09-26T02:23:59.729Z,6.60
2018-09-26T02:30:03.311Z,6.60
2018-09-26T02:36:07.932Z,6.60
2018-09-26T02:42:12.013Z,6.70
2018-09-26T02:48:21.957Z,6.80
2018-09-26T02:54:25.369Z,6.90
2018-09-26T03:00:29.499Z,6.80
2018-09-26T03:06:33.140Z,6.80
2018-09-26T03:12:36.839Z,6.70
2018-09-26T03:18:40.900Z,6.80
2018-09-26T03:24:44.752Z,6.90
2018-09-26T03:30:48.699Z,6.90
2018-09-26T03:36:53.774Z,6.90
2018-09-26T03:42:58.859Z,6.80
2018-09-26T03:49:02.714Z,6.70
2018-09-26T03:55:07.428Z,6.50
2018-09-26T04:01:11.237Z,6.50
2018-09-26T04:07:15.670Z,6.60
2018-09-26T04:13:19.791Z,6.80
2018-09-26T04:19:25.954Z,6.80
2018-09-26T04:25:29.578Z,6.80
2018-09-26T04:31:33.825Z,6.80
2018-09-26T04:37:38.801Z,6.90
2018-09-26T04:43:42.493Z,7.00
2018-09-26T04:49:47.448Z,7.00
2018-09-26T04:55:50.949Z,7.10
2018-09-26T05:01:55.718Z,7.10
2018-09-26T05:07:59.807Z,7.20
2018-09-26T05:14:03.965Z,7.10
2018-09-26T05:20:07.758Z,7.20
2018-09-26T05:26:11.598Z,7.20
2018-09-26T05:32:15.304Z,7.30
2018-09-26T05:38:18.850Z,7.30
2018-09-26T05:44:23.346Z,7.40
2018-09-26T05:50:27.785Z,7.50
2018-09-26T05:56:32.786Z,7.60
2018-09-26T06:02:36.210Z,7.80
2018-09-26T06:08:39.668Z,8.00
2018-09-26T06:14:43.972Z,8.30
2018-09-26T06:20:49.291Z,8.50
2018-09-26T06:26:54.110Z,8.60
2018-09-26T06:32:57.733Z,8.90
2018-09-26T06:39:01.576Z,9.10
2018-09-26T06:45:06.316Z,9.40
2018-09-26T06:51:10.018Z,9.60
2018-09-26T06:57:13.997Z,9.90
2018-09-26T07:03:19.310Z,10.20
2018-09-26T07:09:23.099Z,10.40
2018-09-26T07:15:27.187Z,10.50
2018-09-26T07:21:31.448Z,10.70
2018-09-26T07:27:35.510Z,10.90
2018-09-26T07:33:40.131Z,11.00
2018-09-26T07:39:43.813Z,11.20
2018-09-26T07:45:48.889Z,11.30
2018-09-26T07:51:52.555Z,11.40
2018-09-26T07:57:56.522Z,11.40
2018-09-26T08:04:00.831Z,11.50
2018-09-26T08:10:05.274Z,11.50
2018-09-26T08:16:09.481Z,11.70
2018-09-26T08:22:14.176Z,11.80
2018-09-26T08:28:19.380Z,12.00
2018-09-26T08:34:23.174Z,12.30
2018-09-26T08:40:26.801Z,12.50
2018-09-26T08:46:30.357Z,12.70
2018-09-26T08:52:34.542Z,12.90
2018-09-26T08:58:38.084Z,13.10
2018-09-26T09:04:42.004Z,13.20
2018-09-26T09:10:46.063Z,13.40
2018-09-26T09:16:50.390Z,13.40
2018-09-26T09:22:54.110Z,13.40
2018-09-26T09:28:57.781Z,13.30
2018-09-26T09:35:02.129Z,13.40
2018-09-26T09:41:07.179Z,13.60
2018-09-26T09:47:11.799Z,13.70
2018-09-26T09:53:19.747Z,13.80
2018-09-26T09:59:24.810Z,14.00
2018-09-26T10:05:29.455Z,14.10
2018-09-26T10:11:37.834Z,14.20
2018-09-26T10:17:43.818Z,14.30
2018-09-26T10:23:47.696Z,14.40
2018-09-26T10:29:52.094Z,14.60
2018-09-26T10:35:55.859Z,14.80
2018-09-26T10:41:59.902Z,14.80
2018-09-26T10:48:04.939Z,15.10
2018-09-26T10:54:08.846Z,15.10
2018-09-26T11:00:12.505Z,15.30
2018-09-26T11:06:17.118Z,15.40
2018-09-26T11:12:21.637Z,15.70
2018-09-26T11:18:25.714Z,15.80
2018-09-26T11:24:30.034Z,15.80
2018-09-26T11:30:33.968Z,16.00
2018-09-26T11:36:37.694Z,16.10
2018-09-26T11:42:41.517Z,16.10
2018-09-26T11:48:46.146Z,16.20
2018-09-26T11:54:50.076Z,16.30
2018-09-26T12:00:53.849Z,16.30
2018-09-26T12:06:57.597Z,16.40
2018-09-26T12:13:00.870Z,16.50
2018-09-26T12:19:04.816Z,16.70
2018-09-26T12:25:08.447Z,17.00
2018-09-26T12:31:11.815Z,17.10
2018-09-26T12:37:22.219Z,17.20
2018-09-26T12:43:26.877Z,17.40
2018-09-26T12:49:31.497Z,17.50
2018-09-26T12:55:35.776Z,17.60
2018-09-26T13:01:39.467Z,17.70
2018-09-26T13:07:44.498Z,17.90
2018-09-26T13:13:48.086Z,18.00
2018-09-26T13:19:52.840Z,18.10
2018-09-26T13:25:57.685Z,18.20
2018-09-26T13:32:01.678Z,18.30
2018-09-26T13:38:05.524Z,18.40
2018-09-26T13:44:09.626Z,18.50
2018-09-26T13:50:14.103Z,18.60
2018-09-26T13:56:18.891Z,18.60
2018-09-26T14:02:22.239Z,18.70
2018-09-26T14:08:27.805Z,18.60
2018-09-26T14:14:31.951Z,18.80
2018-09-26T14:20:42.474Z,18.90
2018-09-26T14:26:47.140Z,19.00
2018-09-26T14:32:50.583Z,19.00
2018-09-26T14:38:55.094Z,19.10
2018-09-26T14:44:59.690Z,19.20
2018-09-26T14:51:03.751Z,19.30
2018-09-26T14:57:07.459Z,19.50
2018-09-26T15:03:11.183Z,19.70
2018-09-26T15:09:15.784Z,20.10
2018-09-26T15:15:19.929Z,20.40
2018-09-26T15:21:24.111Z,20.70
2018-09-26T15:27:28.016Z,20.90
2018-09-26T15:33:33.276Z,21.10
2018-09-26T15:39:42.906Z,21.00
2018-09-26T15:45:47.429Z,21.10
2018-09-26T15:51:51.671Z,20.80
2018-09-26T15:57:56.121Z,20.20
2018-09-26T16:04:00.790Z,19.80
2018-09-26T16:10:05.821Z,19.70
2018-09-26T16:16:10.527Z,19.60
2018-09-26T16:22:21.682Z,19.40
2018-09-26T16:28:33.423Z,19.10
2018-09-26T16:34:37.574Z,19.00
2018-09-26T16:40:43.565Z,18.70
2018-09-26T16:46:54.310Z,18.50
2018-09-26T16:52:59.476Z,18.30
2018-09-26T16:59:04.045Z,18.00
2018-09-26T17:05:08.710Z,17.80
2018-09-26T17:11:18.382Z,17.60
2018-09-26T17:17:23.310Z,17.40
2018-09-26T17:23:27.678Z,17.10
2018-09-26T17:29:32.604Z,16.60
2018-09-26T17:35:37.596Z,16.30
2018-09-26T17:41:42.240Z,16.10
2018-09-26T17:47:45.684Z,16.00
2018-09-26T17:53:50.035Z,15.90
2018-09-26T17:59:54.219Z,15.70
2018-09-26T18:05:59.888Z,15.40
2018-09-26T18:12:05.068Z,15.00
2018-09-26T18:18:08.725Z,14.70
2018-09-26T18:24:12.289Z,14.50
2018-09-26T18:30:15.796Z,14.30
2018-09-26T18:36:19.295Z,14.20
2018-09-26T18:42:22.975Z,13.90
2018-09-26T18:48:26.471Z,14.00
2018-09-26T18:54:31.346Z,13.80
2018-09-26T19:00:35.697Z,13.60
2018-09-26T19:06:39.182Z,13.50
2018-09-26T19:12:44.752Z,13.60
2018-09-26T19:18:49.884Z,13.40
2018-09-26T19:24:53.492Z,13.30
2018-09-26T19:30:58.078Z,13.10
2018-09-26T19:37:01.800Z,13.10
2018-09-26T19:43:05.708Z,13.10
2018-09-26T19:49:09.741Z,12.80
2018-09-26T19:55:14.198Z,12.80
2018-09-26T20:01:18.521Z,12.70
2018-09-26T20:07:23.958Z,12.50
2018-09-26T20:13:30.298Z,12.40
2018-09-26T20:19:34.306Z,12.50
2018-09-26T20:25:38.697Z,12.40
2018-09-26T20:31:44.782Z,12.10
2018-09-26T20:37:50.136Z,12.00
2018-09-26T20:43:55.670Z,12.00
2018-09-26T20:50:00.521Z,11.90
2018-09-26T20:56:07.851Z,11.70
2018-09-26T21:02:14.062Z,11.50
2018-09-26T21:08:19.299Z,11.40
2018-09-26T21:14:23.343Z,11.40
2018-09-26T21:20:27.161Z,11.40
2018-09-26T21:26:30.993Z,11.30
2018-09-26T21:32:34.855Z,11.30
2018-09-26T21:38:38.519Z,11.20
2018-09-26T21:44:42.398Z,11.10
2018-09-26T21:50:46.699Z,11.20
2018-09-26T21:56:50.873Z,11.20
2018-09-26T22:02:55.475Z,11.00
2018-09-26T22:09:00.242Z,11.00
2018-09-26T22:15:04.203Z,11.00
2018-09-26T22:21:08.266Z,10.90
2018-09-26T22:27:12.034Z,10.80
2018-09-26T22:33:16.058Z,10.60
2018-09-26T22:39:20.128Z,10.60
2018-09-26T22:45:24.606Z,10.50
2018-09-26T22:51:28.550Z,10.50
2018-09-26T22:57:32.366Z,10.40
2018-09-26T23:10:12.003Z,10.40
2018-09-26T23:16:16.104Z,10.50
2018-09-26T23:22:19.965Z,10.50
2018-09-26T23:28:24.087Z,10.40
2018-09-26T23:34:27.896Z,10.20
2018-09-26T23:40:32.795Z,10.30
2018-09-26T23:46:38.081Z,10.30
2018-09-26T23:52:42.205Z,10.10
2018-09-26T23:58:47.563Z,10.20
